Time;durP1;ratioP1;P1;durP2;ratioP2;P2;SDS_P1;SDS_P2;PMS_P1;PMS_P2;Temp;Humidity;BMP_temperature;BMP_pressure;BME280_temperature;BME280_humidity;BME280_pressure;Samples;Min_cycle;Max_cycle;Signal;HPM_P1;HPM_P2
2021/10/20 00:01:35;;;;;;;4.20;1.38;;;9.60;99.90;;;;;;4994330;28;20885;-83
2021/10/20 00:04:02;;;;;;;3.03;1.30;;;9.60;99.90;;;;;;4981086;28;20041;-83
2021/10/20 00:06:28;;;;;;;2.92;1.25;;;9.60;99.90;;;;;;4982188;28;20039;-83
2021/10/20 00:08:53;;;;;;;3.80;1.52;;;9.60;99.90;;;;;;4980496;28;20406;-83
2021/10/20 00:11:20;;;;;;;3.10;1.10;;;9.60;99.90;;;;;;4994529;28;20026;-83
2021/10/20 00:13:47;;;;;;;2.95;1.30;;;9.50;99.90;;;;;;4999654;28;20105;-83
2021/10/20 00:16:14;;;;;;;2.58;1.05;;;9.60;99.90;;;;;;5000027;28;20034;-83
2021/10/20 00:18:45;;;;;;;3.00;1.35;;;9.50;99.90;;;;;;4988969;28;20031;-83
2021/10/20 00:21:11;;;;;;;4.55;1.67;;;9.50;99.90;;;;;;4980143;28;20030;-83
2021/10/20 00:23:37;;;;;;;4.07;1.30;;;9.50;99.90;;;;;;4980767;28;20054;-84
2021/10/20 00:26:02;;;;;;;3.58;1.50;;;9.50;99.90;;;;;;4979321;28;20058;-83
2021/10/20 00:28:28;;;;;;;4.65;1.58;;;9.50;99.90;;;;;;4995267;28;20031;-83
2021/10/20 00:30:53;;;;;;;3.83;1.55;;;9.50;99.90;;;;;;4998912;28;20034;-83
2021/10/20 00:33:19;;;;;;;3.05;1.02;;;9.50;99.90;;;;;;4981706;28;20034;-84
2021/10/20 00:35:45;;;;;;;5.53;1.60;;;9.60;99.90;;;;;;4978951;28;20027;-83
2021/10/20 00:38:10;;;;;;;3.45;1.50;;;9.60;99.90;;;;;;4983241;28;20499;-82
2021/10/20 00:40:36;;;;;;;2.75;1.33;;;9.70;99.90;;;;;;5008476;28;20027;-82
2021/10/20 00:43:02;;;;;;;3.72;1.55;;;9.70;99.90;;;;;;4988622;28;20049;-83
2021/10/20 00:45:28;;;;;;;3.03;1.30;;;9.70;99.90;;;;;;5017338;28;20030;-83
2021/10/20 00:47:54;;;;;;;4.68;1.50;;;9.80;99.90;;;;;;5029695;28;20034;-83
2021/10/20 00:50:19;;;;;;;2.33;1.15;;;9.80;99.90;;;;;;4986656;28;20031;-84
2021/10/20 00:52:45;;;;;;;3.38;1.30;;;9.80;99.90;;;;;;4983021;28;20487;-85
2021/10/20 00:55:13;;;;;;;4.25;1.10;;;9.80;99.90;;;;;;4979424;28;20035;-83
2021/10/20 00:57:40;;;;;;;2.75;1.42;;;9.80;99.90;;;;;;4963264;28;20026;-83
2021/10/20 01:00:08;;;;;;;2.60;1.00;;;9.80;99.90;;;;;;4961786;28;20029;-83
2021/10/20 01:02:35;;;;;;;3.13;1.25;;;9.80;99.90;;;;;;4977545;28;20117;-83
2021/10/20 01:05:03;;;;;;;4.03;1.27;;;9.80;99.90;;;;;;4999418;28;20026;-82
2021/10/20 01:07:28;;;;;;;2.97;1.60;;;9.80;99.90;;;;;;4998637;28;20444;-83
2021/10/20 01:09:54;;;;;;;3.58;1.20;;;9.80;99.90;;;;;;4977741;28;20023;-82
2021/10/20 01:12:20;;;;;;;4.05;1.48;;;9.70;99.90;;;;;;4979119;28;20179;-83
2021/10/20 01:14:49;;;;;;;3.25;1.30;;;9.70;99.90;;;;;;4984623;28;20368;-83
2021/10/20 01:17:14;;;;;;;2.72;1.10;;;9.60;99.90;;;;;;4989981;28;20034;-84
2021/10/20 01:19:42;;;;;;;2.42;0.98;;;9.60;99.90;;;;;;4997482;28;20045;-83
2021/10/20 01:22:08;;;;;;;3.63;1.50;;;9.60;99.90;;;;;;4998256;28;20033;-84
2021/10/20 01:24:34;;;;;;;2.60;1.25;;;9.60;99.90;;;;;;4997878;28;20093;-82
2021/10/20 01:27:00;;;;;;;2.60;1.27;;;9.60;99.90;;;;;;4979424;28;20030;-82
2021/10/20 01:29:26;;;;;;;3.63;1.55;;;9.70;99.90;;;;;;4995592;28;20018;-83
2021/10/20 01:31:57;;;;;;;3.40;1.30;;;9.60;99.90;;;;;;4996219;28;20029;-82
2021/10/20 01:34:24;;;;;;;2.67;1.02;;;9.60;99.90;;;;;;4980199;28;20030;-83
2021/10/20 01:36:51;;;;;;;3.55;1.20;;;9.70;99.90;;;;;;4979029;28;20103;-83
2021/10/20 01:39:19;;;;;;;2.47;1.00;;;9.70;99.90;;;;;;4973481;28;20057;-83
2021/10/20 01:41:46;;;;;;;3.42;1.30;;;9.70;99.90;;;;;;5035106;23;20028;-85
2021/10/20 01:44:11;;;;;;;2.83;1.00;;;10.30;99.90;;;;;;4996985;28;20038;-86
2021/10/20 01:46:37;;;;;;;3.03;0.80;;;10.30;99.90;;;;;;4984820;28;20027;-87
2021/10/20 01:49:03;;;;;;;3.08;1.17;;;9.90;99.90;;;;;;4991001;28;20026;-85
2021/10/20 01:51:29;;;;;;;3.53;1.10;;;10.10;99.90;;;;;;5002425;28;20058;-87
2021/10/20 01:53:54;;;;;;;5.28;1.08;;;10.00;99.90;;;;;;5021188;28;20037;-87
2021/10/20 01:56:20;;;;;;;3.60;1.20;;;10.40;99.90;;;;;;5023760;28;20069;-87
2021/10/20 01:58:47;;;;;;;2.05;0.90;;;9.70;99.90;;;;;;5005076;28;20503;-87
2021/10/20 02:01:12;;;;;;;3.72;1.15;;;10.20;99.90;;;;;;5006738;28;20034;-87
2021/10/20 02:03:40;;;;;;;3.10;1.50;;;9.50;99.90;;;;;;5006206;28;20081;-87
2021/10/20 02:06:12;;;;;;;2.00;0.95;;;9.50;99.90;;;;;;5008740;28;20037;-87
2021/10/20 02:08:38;;;;;;;3.63;0.90;;;10.20;99.90;;;;;;5003711;28;20034;-87
2021/10/20 02:11:05;;;;;;;2.13;1.05;;;9.20;99.90;;;;;;5005152;28;20026;-86
2021/10/20 02:13:31;;;;;;;2.92;1.38;;;9.10;99.90;;;;;;5008047;28;20031;-87
2021/10/20 02:15:56;;;;;;;2.70;1.17;;;9.40;99.90;;;;;;5006323;28;20113;-88
2021/10/20 02:18:22;;;;;;;3.55;1.10;;;9.40;99.90;;;;;;5008119;28;20023;-88
2021/10/20 02:20:50;;;;;;;2.38;1.05;;;9.30;99.90;;;;;;5007336;28;20034;-88
2021/10/20 02:23:15;;;;;;;2.72;1.10;;;9.40;99.90;;;;;;5015422;28;20022;-87
2021/10/20 02:25:41;;;;;;;3.38;1.15;;;9.30;99.90;;;;;;5025881;28;20026;-88
2021/10/20 02:28:07;;;;;;;3.47;1.20;;;9.40;99.90;;;;;;5011499;28;20526;-88
2021/10/20 02:30:32;;;;;;;4.38;1.33;;;9.90;99.90;;;;;;5020791;28;20122;-87
2021/10/20 02:32:58;;;;;;;2.15;0.75;;;9.40;99.90;;;;;;5006971;28;20039;-88
2021/10/20 02:35:24;;;;;;;3.25;1.23;;;9.60;99.90;;;;;;5020880;28;20045;-87
2021/10/20 02:37:51;;;;;;;2.95;1.17;;;9.40;99.90;;;;;;5006935;28;20506;-88
2021/10/20 02:40:16;;;;;;;4.38;1.50;;;9.40;99.90;;;;;;5038348;28;20026;-87
2021/10/20 02:42:42;;;;;;;2.85;1.30;;;9.80;99.90;;;;;;5038787;28;20061;-88
2021/10/20 02:45:10;;;;;;;10.68;1.50;;;10.10;99.90;;;;;;5006350;28;20026;-88
2021/10/20 02:47:36;;;;;;;2.50;1.20;;;10.00;99.90;;;;;;5004516;28;20041;-87
2021/10/20 02:50:02;;;;;;;3.00;1.38;;;9.00;99.90;;;;;;5004825;28;20023;-87
2021/10/20 02:52:28;;;;;;;3.47;1.38;;;9.30;99.90;;;;;;5006034;28;20061;-87
2021/10/20 02:54:54;;;;;;;3.08;1.38;;;9.20;99.90;;;;;;5007658;28;20034;-88
2021/10/20 02:57:19;;;;;;;2.78;1.38;;;9.20;99.90;;;;;;5006728;28;20030;-87
2021/10/20 02:59:45;;;;;;;4.40;1.83;;;9.90;99.90;;;;;;5010129;28;20035;-88
2021/10/20 03:02:11;;;;;;;3.03;0.98;;;9.30;99.90;;;;;;5021509;28;20042;-87
2021/10/20 03:04:36;;;;;;;2.72;1.00;;;9.50;99.90;;;;;;5021369;28;20095;-88
2021/10/20 03:07:02;;;;;;;4.20;1.40;;;9.60;99.90;;;;;;5002513;28;20072;-87
2021/10/20 03:09:28;;;;;;;2.78;1.15;;;9.40;99.90;;;;;;5006060;28;20026;-88
2021/10/20 03:11:56;;;;;;;2.22;1.10;;;9.30;99.90;;;;;;5004115;28;20093;-87
2021/10/20 03:14:22;;;;;;;3.20;1.50;;;9.30;99.90;;;;;;5006974;28;20040;-88
2021/10/20 03:16:48;;;;;;;3.85;1.10;;;9.30;99.90;;;;;;5028756;28;20499;-87
2021/10/20 03:19:13;;;;;;;5.78;1.48;;;9.20;99.90;;;;;;5025615;28;20041;-87
2021/10/20 03:21:40;;;;;;;3.92;1.42;;;9.30;99.90;;;;;;5025494;28;20084;-87
2021/10/20 03:24:07;;;;;;;3.95;0.90;;;9.30;99.90;;;;;;5025455;28;20025;-88
2021/10/20 03:26:33;;;;;;;3.28;1.23;;;9.20;99.90;;;;;;5025503;28;20037;-88
2021/10/20 03:28:59;;;;;;;2.25;1.00;;;9.60;99.90;;;;;;5026161;28;20054;-89
2021/10/20 03:31:25;;;;;;;2.25;1.10;;;9.20;99.90;;;;;;5025100;28;20037;-86
2021/10/20 03:33:51;;;;;;;3.35;1.27;;;9.20;99.90;;;;;;5025726;28;20033;-87
2021/10/20 03:36:17;;;;;;;2.97;0.90;;;9.70;99.90;;;;;;5008282;28;20030;-87
2021/10/20 03:38:42;;;;;;;2.92;1.05;;;9.50;99.90;;;;;;5011849;28;20462;-87
2021/10/20 03:41:08;;;;;;;2.50;0.95;;;9.20;99.90;;;;;;5055267;28;20021;-87
2021/10/20 03:43:34;;;;;;;2.13;1.05;;;9.20;99.90;;;;;;5037607;28;20030;-87
2021/10/20 03:46:00;;;;;;;2.63;0.88;;;9.20;99.90;;;;;;5027462;28;20038;-87
2021/10/20 03:48:25;;;;;;;2.85;1.00;;;9.50;99.90;;;;;;5027548;28;20192;-88
2021/10/20 03:50:51;;;;;;;1.80;0.80;;;9.30;99.90;;;;;;5024852;28;20029;-88
2021/10/20 03:53:17;;;;;;;2.15;0.82;;;9.50;99.90;;;;;;5019895;28;20065;-87
2021/10/20 03:55:42;;;;;;;3.03;0.90;;;9.30;99.90;;;;;;5004669;28;20057;-88
2021/10/20 03:58:08;;;;;;;2.05;0.90;;;9.30;99.90;;;;;;5004009;28;20086;-87
2021/10/20 04:00:34;;;;;;;2.92;0.95;;;9.30;99.90;;;;;;5006801;28;20029;-88
2021/10/20 04:03:00;;;;;;;2.97;1.15;;;9.30;99.90;;;;;;5017945;28;20120;-87
2021/10/20 04:05:26;;;;;;;2.25;0.90;;;10.00;99.90;;;;;;5005253;28;20143;-87
2021/10/20 04:07:52;;;;;;;2.78;0.82;;;9.30;99.90;;;;;;5021777;28;20034;-87
2021/10/20 04:10:21;;;;;;;2.55;0.90;;;9.30;99.90;;;;;;5007969;28;20108;-87
2021/10/20 04:12:47;;;;;;;3.60;1.10;;;9.30;99.90;;;;;;5032118;28;20030;-86
2021/10/20 04:15:15;;;;;;;2.13;0.80;;;9.20;99.90;;;;;;5036435;28;20037;-87
2021/10/20 04:17:47;;;;;;;3.58;1.38;;;9.20;99.90;;;;;;5022391;28;20033;-86
2021/10/20 04:20:16;;;;;;;2.25;1.00;;;9.20;99.90;;;;;;5022361;28;20025;-86
2021/10/20 04:22:43;;;;;;;3.05;1.10;;;9.20;99.90;;;;;;5022937;28;20029;-87
2021/10/20 04:25:10;;;;;;;2.33;0.80;;;9.30;99.90;;;;;;5021163;28;20117;-87
2021/10/20 04:27:37;;;;;;;2.20;0.80;;;9.30;99.90;;;;;;5023591;28;20021;-87
2021/10/20 04:30:04;;;;;;;1.70;0.82;;;9.40;99.90;;;;;;5022971;28;20422;-88
2021/10/20 04:32:30;;;;;;;3.08;1.10;;;9.30;99.90;;;;;;5021104;28;20030;-87
2021/10/20 04:34:56;;;;;;;2.30;1.00;;;9.30;99.90;;;;;;5021337;28;20153;-86
2021/10/20 04:37:25;;;;;;;2.60;1.00;;;9.40;99.90;;;;;;5020910;28;20026;-86
2021/10/20 04:39:58;;;;;;;3.30;1.05;;;9.20;99.90;;;;;;5011521;28;20024;-87
2021/10/20 04:42:25;;;;;;;2.53;0.88;;;9.20;99.90;;;;;;5000431;28;20034;-87
2021/10/20 04:44:51;;;;;;;1.90;0.68;;;9.20;99.90;;;;;;5009192;28;20033;-87
2021/10/20 04:47:17;;;;;;;4.28;1.10;;;9.40;99.90;;;;;;5013783;28;20029;-88
2021/10/20 04:49:43;;;;;;;2.05;0.70;;;9.30;99.90;;;;;;5007473;28;20056;-89
2021/10/20 04:52:13;;;;;;;1.92;0.70;;;9.40;99.90;;;;;;5022793;28;20030;-88
2021/10/20 04:54:40;;;;;;;1.52;0.80;;;9.20;99.90;;;;;;5027944;28;20026;-89
2021/10/20 04:57:06;;;;;;;2.25;0.88;;;9.30;99.90;;;;;;5013640;28;20087;-89
2021/10/20 04:59:33;;;;;;;2.45;0.77;;;9.40;99.90;;;;;;5010631;28;20474;-88
2021/10/20 05:02:02;;;;;;;2.13;0.73;;;9.70;99.90;;;;;;5007442;28;20018;-89
2021/10/20 05:04:29;;;;;;;1.48;0.63;;;9.50;99.90;;;;;;5013872;28;20033;-88
2021/10/20 05:06:55;;;;;;;2.83;1.08;;;9.60;99.90;;;;;;5012098;28;20045;-89
2021/10/20 05:09:21;;;;;;;1.88;0.80;;;10.30;99.90;;;;;;5012657;28;20034;-89
2021/10/20 05:11:46;;;;;;;1.60;0.60;;;9.20;99.90;;;;;;5010137;28;20018;-88
2021/10/20 05:14:12;;;;;;;1.55;0.70;;;10.30;99.90;;;;;;5014645;28;20034;-88
2021/10/20 05:16:40;;;;;;;3.03;0.90;;;9.60;99.90;;;;;;5013108;28;20101;-89
2021/10/20 05:19:06;;;;;;;3.13;0.80;;;9.60;99.90;;;;;;5006548;28;20034;-89
2021/10/20 05:21:31;;;;;;;1.85;0.75;;;10.20;99.90;;;;;;5011745;28;20083;-89
2021/10/20 05:23:57;;;;;;;4.72;0.75;;;9.50;99.90;;;;;;5004958;28;20022;-89
2021/10/20 05:26:24;;;;;;;3.55;1.00;;;9.60;99.90;;;;;;5019379;28;20438;-90
2021/10/20 05:28:49;;;;;;;1.70;0.80;;;9.60;99.90;;;;;;5026905;28;20038;-88
2021/10/20 05:31:15;;;;;;;2.38;1.15;;;10.00;99.90;;;;;;5002074;28;20065;-88
2021/10/20 05:33:40;;;;;;;2.97;1.15;;;10.10;99.90;;;;;;5013995;28;20056;-89
2021/10/20 05:36:08;;;;;;;2.10;1.02;;;10.20;99.90;;;;;;5008823;28;20040;-89
2021/10/20 05:38:34;;;;;;;2.95;1.02;;;9.60;99.90;;;;;;5015600;28;20651;-89
2021/10/20 05:41:00;;;;;;;2.28;0.88;;;9.60;99.90;;;;;;5023760;28;20347;-89
2021/10/20 05:43:25;;;;;;;3.00;1.10;;;9.60;99.90;;;;;;5028749;28;20120;-88
2021/10/20 05:45:51;;;;;;;3.45;0.93;;;9.50;99.90;;;;;;5024043;28;20034;-87
2021/10/20 05:48:19;;;;;;;1.52;0.63;;;9.80;99.90;;;;;;5003228;28;20459;-88
2021/10/20 05:50:45;;;;;;;2.72;0.80;;;10.10;99.90;;;;;;5009337;28;20026;-88
2021/10/20 05:53:10;;;;;;;2.97;1.08;;;10.40;99.90;;;;;;5011398;28;20083;-88
2021/10/20 05:55:37;;;;;;;3.65;0.90;;;10.60;99.90;;;;;;5011741;28;20034;-88
2021/10/20 05:58:05;;;;;;;1.77;0.63;;;10.70;99.90;;;;;;5008911;28;20030;-88
2021/10/20 06:00:30;;;;;;;4.22;1.40;;;10.90;99.90;;;;;;5013031;28;20035;-89
2021/10/20 06:02:56;;;;;;;2.80;0.98;;;11.00;99.90;;;;;;5020333;28;20018;-89
2021/10/20 06:05:22;;;;;;;2.42;0.95;;;10.80;99.90;;;;;;5029670;28;20028;-88
2021/10/20 06:07:48;;;;;;;1.83;0.60;;;10.80;99.90;;;;;;5021634;28;20041;-89
2021/10/20 06:10:15;;;;;;;1.70;0.85;;;10.70;99.90;;;;;;5009563;28;20038;-86
2021/10/20 06:12:41;;;;;;;2.00;0.93;;;10.50;99.90;;;;;;5009656;28;20506;-85
2021/10/20 06:15:08;;;;;;;2.28;1.05;;;10.50;99.90;;;;;;5008894;28;20033;-85
2021/10/20 06:17:37;;;;;;;3.60;1.00;;;10.50;99.90;;;;;;5010973;28;20056;-87
2021/10/20 06:20:07;;;;;;;2.38;0.75;;;10.50;99.90;;;;;;5005754;28;20049;-87
2021/10/20 06:22:34;;;;;;;2.28;1.08;;;10.40;99.90;;;;;;5014331;28;20042;-87
2021/10/20 06:25:02;;;;;;;3.50;1.10;;;10.40;99.90;;;;;;5011509;28;20045;-88
2021/10/20 06:27:29;;;;;;;2.42;1.00;;;10.40;99.90;;;;;;4992396;28;20114;-87
2021/10/20 06:29:54;;;;;;;2.80;1.20;;;10.30;99.90;;;;;;5003159;28;20069;-87
2021/10/20 06:32:20;;;;;;;3.45;1.00;;;10.30;99.90;;;;;;5011298;28;20111;-87
2021/10/20 06:34:46;;;;;;;1.40;0.50;;;10.20;99.90;;;;;;5008142;28;20038;-86
2021/10/20 06:37:11;;;;;;;2.30;0.90;;;10.20;99.90;;;;;;5009448;28;20477;-88
2021/10/20 06:39:37;;;;;;;2.85;1.10;;;10.30;99.90;;;;;;5017993;28;20578;-87
2021/10/20 06:42:03;;;;;;;2.17;0.90;;;10.30;99.90;;;;;;5025321;28;20026;-85
2021/10/20 06:44:29;;;;;;;3.55;1.02;;;10.30;99.90;;;;;;5005980;28;20104;-87
2021/10/20 06:46:56;;;;;;;3.67;1.00;;;10.70;99.90;;;;;;4997989;28;20081;-86
2021/10/20 06:49:21;;;;;;;1.83;0.68;;;10.30;99.90;;;;;;5012887;28;20044;-86
2021/10/20 06:51:47;;;;;;;6.35;1.17;;;10.40;99.90;;;;;;5021152;28;20029;-85
2021/10/20 06:54:18;;;;;;;3.67;1.08;;;10.40;99.90;;;;;;5000170;28;20117;-86
2021/10/20 06:56:51;;;;;;;3.13;0.90;;;10.50;99.90;;;;;;5027378;28;20036;-89
2021/10/20 06:59:17;;;;;;;3.42;1.15;;;10.60;99.90;;;;;;5034783;28;20030;-89
2021/10/20 07:01:43;;;;;;;3.00;1.30;;;10.70;99.90;;;;;;5025555;28;20394;-89
2021/10/20 07:04:11;;;;;;;7.40;1.38;;;10.80;99.90;;;;;;5028772;28;20053;-88
2021/10/20 07:06:37;;;;;;;2.17;1.00;;;10.90;99.90;;;;;;5036037;28;20510;-89
2021/10/20 07:09:04;;;;;;;4.00;1.05;;;11.00;99.90;;;;;;5030702;28;20051;-89
2021/10/20 07:11:31;;;;;;;2.75;1.15;;;11.40;99.90;;;;;;5015010;28;20258;-89
2021/10/20 07:13:56;;;;;;;2.95;1.15;;;11.40;99.90;;;;;;5015343;28;20112;-89
2021/10/20 07:16:22;;;;;;;3.47;0.90;;;11.60;99.90;;;;;;5015468;28;20141;-89
2021/10/20 07:18:49;;;;;;;3.17;1.30;;;11.70;99.90;;;;;;5011941;28;20022;-90
2021/10/20 07:21:15;;;;;;;3.42;0.85;;;11.90;99.90;;;;;;4995493;28;20080;-89
2021/10/20 07:23:43;;;;;;;3.25;1.10;;;11.70;99.90;;;;;;5006523;28;20405;-89
2021/10/20 07:26:09;;;;;;;2.45;0.90;;;12.00;99.90;;;;;;5015213;28;20116;-89
2021/10/20 07:28:34;;;;;;;2.92;1.20;;;12.00;99.90;;;;;;5015660;28;20065;-90
2021/10/20 07:31:00;;;;;;;5.25;1.50;;;12.50;99.90;;;;;;5016237;28;20045;-90
2021/10/20 07:33:26;;;;;;;2.28;0.90;;;11.90;99.90;;;;;;5016413;28;20029;-89
2021/10/20 07:35:51;;;;;;;2.63;1.20;;;12.10;99.90;;;;;;5013295;28;20501;-89
2021/10/20 07:38:17;;;;;;;2.78;1.20;;;11.80;99.90;;;;;;5011485;28;20113;-89
2021/10/20 07:40:42;;;;;;;3.35;1.20;;;12.10;99.90;;;;;;5010871;28;20025;-89
2021/10/20 07:43:08;;;;;;;5.43;1.48;;;12.70;99.90;;;;;;5029338;22;20081;-83
2021/10/20 07:45:34;;;;;;;2.78;1.08;;;12.00;99.90;;;;;;4996056;28;20546;-83
2021/10/20 07:47:59;;;;;;;3.30;1.35;;;12.10;99.90;;;;;;5021644;28;20458;-84
2021/10/20 07:50:25;;;;;;;3.28;1.30;;;12.20;99.90;;;;;;5016061;28;20479;-84
2021/10/20 07:52:51;;;;;;;6.00;1.30;;;12.30;99.90;;;;;;5018954;28;20033;-84
2021/10/20 07:55:21;;;;;;;2.78;1.40;;;12.50;99.90;;;;;;5016466;28;20079;-83
2021/10/20 07:57:47;;;;;;;7.20;1.35;;;12.50;99.90;;;;;;5021767;28;20022;-84
2021/10/20 08:00:15;;;;;;;1.95;0.85;;;12.60;99.90;;;;;;5019202;28;20017;-83
2021/10/20 08:02:41;;;;;;;2.60;1.08;;;12.60;99.90;;;;;;5003942;28;20033;-83
2021/10/20 08:05:07;;;;;;;3.03;1.20;;;12.70;99.90;;;;;;5003052;28;20034;-85
2021/10/20 08:07:33;;;;;;;4.13;1.30;;;12.80;99.90;;;;;;5000660;28;20125;-82
2021/10/20 08:09:58;;;;;;;2.20;0.85;;;12.90;99.90;;;;;;4991595;28;20057;-82
2021/10/20 08:12:24;;;;;;;2.30;1.00;;;13.00;99.90;;;;;;5014890;28;20118;-83
2021/10/20 08:14:55;;;;;;;2.88;0.82;;;13.10;99.90;;;;;;5005819;28;20030;-83
2021/10/20 08:17:21;;;;;;;5.10;1.35;;;13.20;99.90;;;;;;5001325;28;20027;-81
2021/10/20 08:19:47;;;;;;;2.08;1.10;;;13.30;99.90;;;;;;4998795;28;20027;-81
2021/10/20 08:22:13;;;;;;;2.65;1.02;;;13.40;99.90;;;;;;5028400;28;20030;-84
2021/10/20 08:24:38;;;;;;;1.80;1.00;;;13.50;99.90;;;;;;5010977;28;20026;-83
2021/10/20 08:27:04;;;;;;;3.20;1.02;;;13.70;99.90;;;;;;4987599;28;20503;-83
2021/10/20 08:29:30;;;;;;;3.38;1.23;;;13.80;99.90;;;;;;4988729;28;20026;-81
2021/10/20 08:31:56;;;;;;;4.35;1.00;;;14.00;99.90;;;;;;4995041;28;20483;-82
2021/10/20 08:34:22;;;;;;;1.52;0.93;;;14.10;99.90;;;;;;5010489;28;20448;-83
2021/10/20 08:36:48;;;;;;;3.15;1.27;;;14.30;99.90;;;;;;5020722;28;20348;-83
2021/10/20 08:39:15;;;;;;;2.72;1.05;;;14.50;99.90;;;;;;5015912;28;20029;-84
2021/10/20 08:41:41;;;;;;;4.07;1.00;;;14.80;99.90;;;;;;5013212;28;20022;-84
2021/10/20 08:44:07;;;;;;;2.25;0.85;;;14.90;99.90;;;;;;4988681;28;20038;-83
2021/10/20 08:46:33;;;;;;;1.80;0.70;;;15.00;99.90;;;;;;5014864;28;20038;-84
2021/10/20 08:49:01;;;;;;;4.47;1.30;;;15.10;99.90;;;;;;5015125;28;20438;-82
2021/10/20 08:51:27;;;;;;;2.28;0.98;;;15.20;99.90;;;;;;5015561;28;20025;-84
2021/10/20 08:53:56;;;;;;;2.30;0.85;;;15.20;99.90;;;;;;5014056;28;20036;-84
2021/10/20 08:56:21;;;;;;;2.60;0.98;;;15.20;99.90;;;;;;5014189;28;20026;-84
2021/10/20 08:58:47;;;;;;;2.67;0.77;;;15.30;99.90;;;;;;5015452;28;20026;-84
2021/10/20 09:01:12;;;;;;;3.00;1.25;;;15.40;99.90;;;;;;5015475;28;20030;-83
2021/10/20 09:03:40;;;;;;;2.28;0.80;;;15.40;99.90;;;;;;4996301;28;20050;-82
2021/10/20 09:06:06;;;;;;;2.72;1.02;;;15.40;99.90;;;;;;4998107;28;20053;-82
2021/10/20 09:08:42;;;;;;;1.38;0.68;;;15.50;99.90;;;;;;4998947;28;20036;-83
2021/10/20 09:11:32;;;;;;;2.97;0.70;;;15.50;99.90;;;;;;5002689;28;20037;-82
2021/10/20 09:14:13;;;;;;;4.18;0.85;;;15.60;99.90;;;;;;5016653;28;20104;-84
2021/10/20 09:16:42;;;;;;;1.83;0.70;;;15.80;99.90;;;;;;5007437;28;20034;-82
2021/10/20 09:19:15;;;;;;;2.33;0.85;;;15.80;99.90;;;;;;5017436;28;20058;-83
2021/10/20 09:21:50;;;;;;;1.30;0.60;;;15.90;99.90;;;;;;5018371;28;20479;-81
2021/10/20 09:24:16;;;;;;;1.92;0.80;;;16.00;99.90;;;;;;5002823;28;20071;-83
2021/10/20 09:26:41;;;;;;;2.45;1.02;;;16.10;99.90;;;;;;5014892;28;20035;-83
2021/10/20 09:29:24;;;;;;;1.92;0.70;;;16.10;99.90;;;;;;5015982;28;20518;-83
2021/10/20 09:31:50;;;;;;;1.42;0.63;;;16.10;99.90;;;;;;5017206;28;20034;-82
2021/10/20 09:34:16;;;;;;;2.20;0.82;;;16.10;99.90;;;;;;5018293;28;20214;-82
2021/10/20 09:36:42;;;;;;;1.58;0.55;;;16.20;99.90;;;;;;5012465;28;20037;-82
2021/10/20 09:39:13;;;;;;;2.10;0.70;;;16.20;99.90;;;;;;5014238;28;20053;-82
2021/10/20 09:41:38;;;;;;;2.47;0.53;;;16.30;99.90;;;;;;5012962;28;20036;-83
2021/10/20 09:44:08;;;;;;;1.42;0.60;;;16.30;99.90;;;;;;5005741;28;20550;-82
2021/10/20 09:46:35;;;;;;;2.13;0.70;;;16.80;99.90;;;;;;5015906;28;20029;-82
2021/10/20 09:49:12;;;;;;;3.03;0.90;;;17.00;99.90;;;;;;5016458;28;20060;-81
2021/10/20 09:51:38;;;;;;;2.08;0.90;;;17.20;99.90;;;;;;5016505;28;20033;-83
2021/10/20 09:54:38;;;;;;;1.27;0.55;;;17.50;99.90;;;;;;5015065;28;20434;-83
2021/10/20 09:57:04;;;;;;;2.33;0.70;;;17.60;99.90;;;;;;5016568;28;20060;-81
2021/10/20 09:59:30;;;;;;;1.42;0.77;;;17.70;99.90;;;;;;5015271;28;20092;-83
2021/10/20 10:01:56;;;;;;;2.03;0.75;;;17.70;99.90;;;;;;5015802;28;20462;-83
2021/10/20 10:04:22;;;;;;;1.05;0.57;;;17.80;99.90;;;;;;4998662;28;20517;-83
2021/10/20 10:06:49;;;;;;;1.42;0.60;;;17.80;99.90;;;;;;4996084;28;20034;-84
2021/10/20 10:09:16;;;;;;;1.65;0.70;;;17.80;99.90;;;;;;5013355;28;20034;-84
2021/10/20 10:12:13;;;;;;;1.25;0.70;;;17.90;99.90;;;;;;4995440;28;20038;-83
2021/10/20 10:14:51;;;;;;;1.55;0.63;;;18.10;99.90;;;;;;4989833;28;20038;-83
2021/10/20 10:17:18;;;;;;;1.80;0.43;;;18.20;99.90;;;;;;4997600;28;20169;-83
2021/10/20 10:19:44;;;;;;;1.48;0.50;;;18.20;99.90;;;;;;5001036;28;20080;-83
2021/10/20 10:22:22;;;;;;;1.77;0.55;;;18.20;99.90;;;;;;5001422;28;20030;-83
2021/10/20 10:24:48;;;;;;;1.42;0.50;;;18.20;99.90;;;;;;5001226;28;20033;-84
2021/10/20 10:27:14;;;;;;;1.80;0.70;;;18.30;99.90;;;;;;5001545;28;20030;-83
2021/10/20 10:30:00;;;;;;;1.65;0.70;;;18.30;99.90;;;;;;5001945;28;20057;-84
2021/10/20 10:32:27;;;;;;;1.95;0.70;;;18.30;99.90;;;;;;5016277;28;20117;-84
2021/10/20 10:34:53;;;;;;;1.75;0.77;;;18.40;99.90;;;;;;5000982;28;20052;-83
2021/10/20 10:37:26;;;;;;;1.33;0.50;;;18.30;99.90;;;;;;5014841;28;20033;-83
2021/10/20 10:39:52;;;;;;;3.17;0.60;;;18.40;99.90;;;;;;5019622;28;20448;-83
2021/10/20 10:42:18;;;;;;;1.45;0.52;;;18.50;99.90;;;;;;5018324;28;20383;-84
2021/10/20 10:44:51;;;;;;;1.48;0.50;;;18.50;99.90;;;;;;5004351;28;20040;-83
2021/10/20 10:47:27;;;;;;;1.83;0.50;;;18.40;99.90;;;;;;5018517;28;20117;-83
2021/10/20 10:49:57;;;;;;;1.65;0.60;;;18.40;99.90;;;;;;4994509;28;20628;-82
2021/10/20 10:52:35;;;;;;;1.38;0.60;;;18.40;99.90;;;;;;4995564;28;20097;-83
2021/10/20 10:55:19;;;;;;;1.83;0.60;;;18.50;99.90;;;;;;4997167;28;20080;-83
2021/10/20 10:57:52;;;;;;;2.97;0.60;;;18.50;99.90;;;;;;4999028;28;20096;-83
2021/10/20 11:00:17;;;;;;;1.45;0.55;;;18.70;99.90;;;;;;5008807;28;20031;-82
2021/10/20 11:02:51;;;;;;;1.27;0.60;;;18.90;99.90;;;;;;5018554;28;20103;-84
2021/10/20 11:05:24;;;;;;;1.95;0.43;;;19.10;99.90;;;;;;5011998;28;20073;-83
2021/10/20 11:07:53;;;;;;;1.63;0.50;;;19.20;99.90;;;;;;5015223;28;20026;-83
2021/10/20 11:10:19;;;;;;;1.55;0.60;;;19.30;99.90;;;;;;5001100;28;20153;-83
2021/10/20 11:12:46;;;;;;;2.13;0.70;;;19.40;99.90;;;;;;5009390;28;20042;-83
2021/10/20 11:15:12;;;;;;;1.00;0.38;;;19.40;99.90;;;;;;5017772;28;20030;-82
2021/10/20 11:17:38;;;;;;;2.83;0.95;;;19.30;99.90;;;;;;5001851;28;20475;-84
2021/10/20 11:20:20;;;;;;;0.82;0.40;;;19.20;99.90;;;;;;4999847;28;20487;-82
2021/10/20 11:22:50;;;;;;;;;;;19.00;99.90;;;;;;4997655;28;20639;-83
2021/10/20 11:25:17;;;;;;;1.25;0.50;;;19.00;99.90;;;;;;5000132;28;20004;-83
2021/10/20 11:27:51;;;;;;;2.35;0.60;;;19.10;99.90;;;;;;4998280;28;20022;-83
2021/10/20 11:30:18;;;;;;;1.30;0.40;;;19.20;99.90;;;;;;5006432;28;20046;-81
2021/10/20 11:32:45;;;;;;;1.13;0.47;;;19.30;99.90;;;;;;5010087;28;20022;-84
2021/10/20 11:35:23;;;;;;;1.10;0.50;;;19.40;99.90;;;;;;5005918;28;20031;-83
2021/10/20 11:37:53;;;;;;;1.70;0.60;;;19.50;99.90;;;;;;5005841;28;20102;-82
2021/10/20 11:40:19;;;;;;;1.13;0.45;;;19.60;99.90;;;;;;5003459;28;20125;-82
2021/10/20 11:42:45;;;;;;;0.73;0.47;;;19.80;99.90;;;;;;5004321;28;20112;-83
2021/10/20 11:45:10;;;;;;;1.30;0.40;;;20.00;99.90;;;;;;5005304;28;20372;-81
2021/10/20 11:47:41;;;;;;;1.33;0.50;;;19.90;99.90;;;;;;5005636;28;20054;-84
2021/10/20 11:50:15;;;;;;;1.70;0.80;;;20.20;99.90;;;;;;5004877;28;20149;-83
2021/10/20 11:52:41;;;;;;;1.17;0.40;;;20.20;99.90;;;;;;5011245;28;20098;-82
2021/10/20 11:55:10;;;;;;;1.70;0.50;;;20.20;99.90;;;;;;5007400;28;20034;-82
2021/10/20 11:57:37;;;;;;;1.58;0.50;;;20.30;99.90;;;;;;5007374;28;20022;-82
2021/10/20 12:00:05;;;;;;;2.05;0.60;;;20.30;99.90;;;;;;5007112;28;20045;-80
2021/10/20 12:02:33;;;;;;;0.93;0.47;;;20.40;99.90;;;;;;5003577;28;20218;-81
2021/10/20 12:04:59;;;;;;;1.30;0.47;;;20.50;99.90;;;;;;5008189;28;20034;-83
2021/10/20 12:07:30;;;;;;;0.75;0.40;;;20.80;99.90;;;;;;5023109;28;20027;-82
2021/10/20 12:10:00;;;;;;;1.88;0.60;;;21.00;99.90;;;;;;5003824;28;20054;-82
2021/10/20 12:12:27;;;;;;;1.52;0.60;;;21.10;99.90;;;;;;5005185;28;20026;-83
2021/10/20 12:14:57;;;;;;;1.10;0.45;;;21.10;99.90;;;;;;5005773;28;20053;-84
2021/10/20 12:17:26;;;;;;;0.85;0.32;;;21.00;99.90;;;;;;5001668;28;20030;-83
2021/10/20 12:19:58;;;;;;;0.60;0.35;;;20.90;99.90;;;;;;5007735;28;20941;-83
2021/10/20 12:22:26;;;;;;;5.10;0.63;;;21.00;99.90;;;;;;5012264;28;20030;-82
2021/10/20 12:24:54;;;;;;;1.40;0.50;;;21.00;99.90;;;;;;5025294;28;20049;-82
2021/10/20 12:27:21;;;;;;;1.52;0.50;;;20.90;99.90;;;;;;5012922;28;20030;-83
2021/10/20 12:29:50;;;;;;;1.35;0.50;;;21.00;99.90;;;;;;5009960;28;20034;-83
2021/10/20 12:32:25;;;;;;;1.50;0.50;;;21.10;99.90;;;;;;5008005;28;20033;-82
2021/10/20 12:35:03;;;;;;;1.08;0.40;;;21.20;99.90;;;;;;5005259;28;20041;-82
2021/10/20 12:37:36;;;;;;;1.17;0.50;;;21.30;99.40;;;;;;5003904;28;20506;-82
2021/10/20 12:40:14;;;;;;;1.13;0.60;;;21.40;99.90;;;;;;5005106;28;20030;-83
2021/10/20 12:42:59;;;;;;;1.20;0.50;;;21.40;99.90;;;;;;5016683;28;20118;-83
2021/10/20 12:45:27;;;;;;;1.30;0.43;;;21.20;99.50;;;;;;5011380;28;20030;-82
2021/10/20 12:47:56;;;;;;;1.48;0.50;;;21.10;99.90;;;;;;5008445;28;20022;-82
2021/10/20 12:50:24;;;;;;;1.27;0.50;;;21.00;99.90;;;;;;4998867;28;20030;-82
2021/10/20 12:52:50;;;;;;;1.30;0.50;;;20.80;99.90;;;;;;5002291;28;20108;-84